KCDW/CDW METAR and TAF weather

Enter ICAO airport designator
Station Type Date Time Source
KCDW METAR 2020/09/19 04:53 UTC NOAA

KCDW 190453Z AUTO 04006KT 10SM CLR 12/M01 A3021 RMK AO2 SLP235 T01221006 402220122


Station Type Date Time Source
KCDW Decoded METAR 2020/09/19 04:53 UTC NOAA

CALDWELL ESSEX COUNTY AIRPORT , NJ, United States (KCDW) 40-53N 074-17W 64M
Sep 19, 2020 - 12:53 AM EDT / 2020.09.19 0453 UTC
Wind: from the NE (040 degrees) at 7 MPH (6 KT):0
Visibility: 10 mile(s):0
Sky conditions: clear
Temperature: 54.0 F (12.2 C)
Dew Point: 30.9 F (-0.6 C)
Relative Humidity: 41%
Pressure (altimeter): 30.21 in. Hg (1023 hPa)
ob: KCDW 190453Z AUTO 04006KT 10SM CLR 12/M01 A3021 RMK AO2 SLP235 T01221006 402220122
cycle: 5

Station Type Date Time Source
KCDW TAF UTC NOAA

Error!

Example: see airport list